Wake Island Airfield, Wake Island

11:10 AM WAKT on December 27, 2014 (GMT +1200)
Wake Island Army Air Field | Change Station
CLOSE
Current Station
Airport
Location: Wake Island, Wake Island Army,
Elevation: 13 ft
Nearby Weather Stations

Elev 13 ft 19.28 °N, 166.64 °E | Updated 12 minutes ago

Partly Cloudy
Partly Cloudy
82 °F
Feels Like 86 °F
N
15
Wind Variable Wind from East

Today
High -- | Low -- °F
--% Chance of Precip.
Yesterday
High -- | Low -- °F
Precip. -- in
7:24 AM 6:23 PM
Waxing Crescent, 30% visible
Pressure 30.03 in
Visibility 6.2 miles
Clouds Few 5000 ft
Heat Index 86 °F
Dew Point 72 °F
Humidity 73%
Rainfall 0.12 in
Snow Depth Not available.
UV 4 out of 12
Pollen Not available.
Air Quality Not available.
Flu Activity Not available.
METAR PWAK 262258Z AUTO 09013KT 9999 FEW050 28/22 A3001 RMK AO2 SLP169 T02760224

More Conditions Fewer Conditions

Pressure 30.03 in
Visibility 6.2 miles
Clouds Few 5000 ft
Heat Index 86 °F
Dew Point 72 °F
Humidity 73%
Rainfall 0.12 in
Snow Depth Not available.
UV 4 out of 12
Pollen Not available.
Air Quality Not available.
Flu Activity Not available.
METAR PWAK 262258Z AUTO 09013KT 9999 FEW050 28/22 A3001 RMK AO2 SLP169 T02760224

More Conditions Fewer Conditions

10-Day Weather Forecast

Almanac

Astronomy

Dec. 27, 2014 Rise Set
Actual Time
Civil Twilight
Nautical Twilight
Astronomical Twilight
Moon
Length of Visible Light
Length of Day
Tomorrow will be .
, % of the Moon is Illuminated

Today's Extremes

Country Highs Country Lows

Community

WunderPhotos

Upload Photos

1,780,761 photos uploaded!

WunderBlogs® & News

Nearby

Air Quality

  Air Quality AQ Index Pollutant
Not available.

Snow Depth

Station Depth Elevation

Earthquake Activity

City Distance Mag. Time & Date
Minimum magnitude displayed is 2.5.

Coastal Water Temperatures

Place Temperature

Nearby Weather Stations